Paris, Ohio
Current Conditions -  °F | °C
As of 12:51 PM on Thursday 29 Jan 2015 (Local Time) from KCAK Reporting Station
Light Rain Light Rain  
Wind Chill: 27°   Ceiling: 1700
Heat Index: 35°   Visibility: 10mi
Dew Point: 29°   Wind: 12mph
Humidity: 78%   Direction: 200°SSW
Pressure: 29.79"   Gusts: 22mph
Location:  40.8°N, 81.16°W
Report Text: KCAK 291751Z 20010G19KT 10SM -RA BKN017 OVC036 02/M02 A2979 RMK AO2 RAB50FZRAE50PLE28 SLP100 4/005 933007 P0002 60012 T00171017 10017 21022 58026 $
Loading
Personal Weather Stations






























Interactive Weather Map New forecast layout! Learn more

10-Day Weather Forecast

Advertisements
Track Severe Weather on mobile